Time;durP1;ratioP1;P1;durP2;ratioP2;P2;SDS_P1;SDS_P2;PMS_P1;PMS_P2;Temp;Humidity;BMP_temperature;BMP_pressure;BME280_temperature;BME280_humidity;BME280_pressure;Samples;Min_cycle;Max_cycle;Signal;HPM_P1;HPM_P2
2021/12/09 00:01:21;;;;;;;10.57;6.43;;;2.90;99.90;;;;;;5014773;28;20201;-78
2021/12/09 00:03:46;;;;;;;15.03;5.60;;;2.90;99.90;;;;;;5015250;28;20200;-79
2021/12/09 00:06:12;;;;;;;10.00;6.03;;;2.90;99.90;;;;;;5015106;28;20656;-78
2021/12/09 00:08:38;;;;;;;10.80;5.73;;;3.00;99.90;;;;;;5015272;28;20538;-78
2021/12/09 00:11:07;;;;;;;14.40;6.07;;;2.90;99.90;;;;;;5014366;28;20206;-78
2021/12/09 00:13:33;;;;;;;11.20;5.97;;;2.90;99.90;;;;;;5015090;28;20263;-78
2021/12/09 00:15:59;;;;;;;12.63;5.80;;;2.80;99.90;;;;;;5014996;28;20660;-78
2021/12/09 00:18:26;;;;;;;6.93;5.27;;;2.90;99.90;;;;;;5044830;22;20289;-81
2021/12/09 00:20:52;;;;;;;10.03;5.40;;;2.90;99.90;;;;;;5035972;28;20199;-81
2021/12/09 00:23:18;;;;;;;11.07;5.37;;;2.90;99.90;;;;;;5036666;28;20175;-79
2021/12/09 00:25:44;;;;;;;8.03;4.40;;;2.80;99.90;;;;;;5035917;28;20215;-80
2021/12/09 00:28:11;;;;;;;4.40;3.37;;;2.80;99.90;;;;;;5036830;28;20584;-80
2021/12/09 00:30:37;;;;;;;7.10;3.90;;;2.80;99.90;;;;;;5036080;28;20212;-80
2021/12/09 00:33:05;;;;;;;7.20;3.83;;;2.70;99.90;;;;;;5036504;28;20799;-78
2021/12/09 00:35:42;;;;;;;8.73;4.13;;;2.80;99.90;;;;;;5035832;28;20175;-78
2021/12/09 00:38:10;;;;;;;7.53;3.80;;;2.80;99.90;;;;;;5035849;28;20203;-78
2021/12/09 00:40:36;;;;;;;8.13;4.00;;;2.70;99.90;;;;;;5035415;28;20691;-78
2021/12/09 00:43:03;;;;;;;7.23;3.70;;;2.80;99.90;;;;;;5036783;28;20171;-79
2021/12/09 00:45:29;;;;;;;6.90;3.53;;;2.70;99.90;;;;;;5034828;28;20211;-79
2021/12/09 00:47:55;;;;;;;6.47;3.30;;;2.70;99.90;;;;;;5035470;28;20203;-78
2021/12/09 00:50:21;;;;;;;6.87;3.30;;;2.70;99.90;;;;;;5034698;28;20203;-80
2021/12/09 00:52:47;;;;;;;6.33;3.40;;;2.70;99.90;;;;;;5035721;28;20206;-79
2021/12/09 00:55:13;;;;;;;5.07;3.20;;;2.60;99.90;;;;;;5036153;28;20176;-78
2021/12/09 00:57:40;;;;;;;4.40;2.80;;;2.60;99.90;;;;;;5034810;28;20195;-78
2021/12/09 01:00:13;;;;;;;6.37;2.60;;;2.50;99.90;;;;;;5034927;28;20230;-78
2021/12/09 01:02:38;;;;;;;4.27;2.60;;;2.50;99.90;;;;;;5034449;28;20179;-78
2021/12/09 01:05:05;;;;;;;4.07;2.80;;;2.50;99.90;;;;;;5034038;28;20203;-77
2021/12/09 01:07:34;;;;;;;5.33;2.43;;;2.40;99.90;;;;;;5033175;28;20172;-77
2021/12/09 01:09:59;;;;;;;6.40;2.90;;;2.40;99.90;;;;;;5033614;28;20195;-77
2021/12/09 01:12:25;;;;;;;4.27;2.80;;;2.40;99.90;;;;;;5034231;28;20183;-78
2021/12/09 01:14:51;;;;;;;6.23;2.90;;;2.30;99.90;;;;;;5034086;28;20176;-78
2021/12/09 01:17:17;;;;;;;6.00;3.47;;;2.20;99.90;;;;;;5033846;28;20184;-77
2021/12/09 01:19:42;;;;;;;8.13;3.10;;;2.30;99.90;;;;;;5033159;28;20590;-77
2021/12/09 01:22:09;;;;;;;6.77;2.90;;;2.30;99.90;;;;;;5033947;28;20200;-78
2021/12/09 01:24:35;;;;;;;7.00;2.93;;;2.40;99.90;;;;;;5034599;28;20179;-78
2021/12/09 01:27:01;;;;;;;4.23;3.43;;;2.40;99.90;;;;;;5034488;28;20262;-79
2021/12/09 01:29:38;;;;;;;6.20;3.80;;;2.40;99.90;;;;;;5034297;28;20611;-77
2021/12/09 01:32:06;;;;;;;6.07;3.80;;;2.30;99.90;;;;;;5033902;28;20249;-77
2021/12/09 01:34:34;;;;;;;4.83;3.53;;;2.30;99.90;;;;;;5034008;28;20180;-77
2021/12/09 01:37:00;;;;;;;5.70;3.90;;;2.40;99.90;;;;;;5033920;28;20187;-78
2021/12/09 01:39:28;;;;;;;5.77;4.20;;;2.40;99.90;;;;;;5033456;28;20767;-77
2021/12/09 01:41:55;;;;;;;4.90;4.03;;;2.30;99.90;;;;;;5034062;28;20563;-77
2021/12/09 01:44:22;;;;;;;5.15;4.55;;;2.40;99.90;;;;;;5033888;28;20206;-77
2021/12/09 01:46:47;;;;;;;5.63;4.70;;;2.40;99.90;;;;;;5033015;28;20711;-77
2021/12/09 01:49:13;;;;;;;6.43;5.03;;;2.30;99.90;;;;;;5033041;28;20267;-78
2021/12/09 01:51:40;;;;;;;6.70;4.70;;;2.30;99.90;;;;;;5033199;28;20695;-78
2021/12/09 01:54:06;;;;;;;9.37;4.73;;;2.40;99.90;;;;;;5033383;28;20184;-78
2021/12/09 01:56:31;;;;;;;6.37;4.67;;;2.40;99.90;;;;;;5033521;28;20186;-78
2021/12/09 01:59:02;;;;;;;8.33;4.97;;;2.30;99.90;;;;;;5033285;28;20189;-77
2021/12/09 02:01:28;;;;;;;8.23;4.77;;;2.40;99.90;;;;;;5032382;28;20223;-77
2021/12/09 02:03:55;;;;;;;6.87;4.70;;;2.40;99.90;;;;;;5033361;28;20175;-77
2021/12/09 02:06:22;;;;;;;5.17;4.60;;;2.30;99.90;;;;;;5033393;28;20582;-78
2021/12/09 02:08:48;;;;;;;6.40;4.90;;;2.40;99.90;;;;;;5032391;28;20637;-77
2021/12/09 02:11:14;;;;;;;7.53;5.30;;;2.30;99.90;;;;;;5032674;28;20203;-78
2021/12/09 02:13:40;;;;;;;7.80;5.17;;;2.20;99.90;;;;;;5033218;28;20233;-78
2021/12/09 02:16:06;;;;;;;9.80;5.60;;;2.30;99.90;;;;;;5033099;28;20172;-78
2021/12/09 02:18:31;;;;;;;6.70;5.10;;;2.20;99.90;;;;;;5033385;28;20230;-77
2021/12/09 02:21:13;;;;;;;8.00;5.60;;;2.30;99.90;;;;;;5032540;28;20199;-77
2021/12/09 02:23:44;;;;;;;8.40;5.53;;;2.10;99.90;;;;;;5033182;28;20210;-78
2021/12/09 02:26:11;;;;;;;8.70;5.83;;;2.10;99.90;;;;;;5032817;28;20203;-78
2021/12/09 02:28:36;;;;;;;5.93;5.27;;;2.20;99.90;;;;;;5033087;28;20264;-78
2021/12/09 02:31:03;;;;;;;8.53;6.03;;;2.30;99.90;;;;;;5033636;28;20211;-78
2021/12/09 02:33:28;;;;;;;8.90;5.70;;;2.30;99.90;;;;;;5033634;28;20171;-78
2021/12/09 02:35:54;;;;;;;10.97;6.43;;;2.30;99.90;;;;;;5033143;28;20282;-78
2021/12/09 02:38:20;;;;;;;7.57;5.83;;;2.30;99.90;;;;;;5033460;28;20211;-78
2021/12/09 02:40:48;;;;;;;9.57;6.57;;;2.40;99.90;;;;;;5035313;28;20207;-78
2021/12/09 02:43:14;;;;;;;10.67;7.00;;;2.40;99.90;;;;;;5033991;28;20179;-78
2021/12/09 02:45:41;;;;;;;8.87;6.60;;;2.40;99.90;;;;;;5033324;28;20303;-78
2021/12/09 02:48:07;;;;;;;9.03;7.20;;;2.40;99.90;;;;;;5033240;28;20184;-78
2021/12/09 02:50:33;;;;;;;10.70;7.03;;;2.40;99.90;;;;;;5032564;28;20730;-77
2021/12/09 02:52:59;;;;;;;10.87;7.70;;;2.50;99.90;;;;;;5032851;28;20201;-77
2021/12/09 02:55:25;;;;;;;9.10;7.37;;;2.40;99.90;;;;;;5032720;28;20206;-77
2021/12/09 02:57:52;;;;;;;10.37;7.17;;;2.40;99.90;;;;;;5033393;28;20543;-78
2021/12/09 03:00:18;;;;;;;9.53;6.90;;;2.40;99.90;;;;;;5032202;28;20680;-78
2021/12/09 03:02:44;;;;;;;10.43;7.33;;;2.40;99.90;;;;;;5033324;28;20191;-77
2021/12/09 03:05:10;;;;;;;9.63;7.27;;;2.30;99.90;;;;;;5033128;28;20238;-78
2021/12/09 03:07:39;;;;;;;11.43;7.10;;;2.30;99.90;;;;;;5033027;28;20215;-78
2021/12/09 03:10:17;;;;;;;11.80;7.40;;;2.30;99.90;;;;;;5032370;28;20234;-77
2021/12/09 03:12:43;;;;;;;11.07;8.37;;;2.30;99.90;;;;;;5033100;28;20167;-78
2021/12/09 03:15:09;;;;;;;11.77;7.77;;;2.30;99.90;;;;;;5032821;28;20250;-77
2021/12/09 03:17:37;;;;;;;10.10;7.80;;;2.30;99.90;;;;;;5032533;28;20198;-77
2021/12/09 03:20:08;;;;;;;12.00;7.57;;;2.30;99.90;;;;;;5033447;28;20219;-78
2021/12/09 03:22:34;;;;;;;9.83;7.37;;;2.30;99.90;;;;;;5034163;28;20294;-78
2021/12/09 03:25:00;;;;;;;13.60;7.63;;;2.30;99.90;;;;;;5033269;28;20310;-78
2021/12/09 03:27:26;;;;;;;11.80;8.50;;;2.30;99.90;;;;;;5033786;28;20179;-78
2021/12/09 03:29:51;;;;;;;9.73;7.97;;;2.30;99.90;;;;;;5032944;28;20898;-78
2021/12/09 03:32:18;;;;;;;13.83;8.03;;;2.30;99.90;;;;;;5033679;28;20222;-77
2021/12/09 03:34:45;;;;;;;11.40;8.50;;;2.30;99.90;;;;;;5032761;28;20710;-78
2021/12/09 03:37:15;;;;;;;10.07;7.97;;;2.30;99.90;;;;;;5031062;28;20183;-77
2021/12/09 03:39:42;;;;;;;9.37;7.50;;;2.20;99.90;;;;;;5032027;28;20711;-79
2021/12/09 03:42:11;;;;;;;13.10;7.87;;;2.30;99.90;;;;;;5031752;28;20653;-76
2021/12/09 03:44:37;;;;;;;11.97;8.13;;;2.40;99.90;;;;;;5031876;28;20176;-77
2021/12/09 03:47:06;;;;;;;12.23;7.43;;;2.40;99.90;;;;;;5032003;28;20189;-78
2021/12/09 03:49:31;;;;;;;9.83;6.70;;;2.30;99.90;;;;;;5031398;28;20176;-78
2021/12/09 03:51:57;;;;;;;12.10;6.63;;;2.50;99.90;;;;;;5031956;28;20168;-77
2021/12/09 03:54:25;;;;;;;10.73;5.60;;;2.50;99.90;;;;;;5032019;28;20176;-78
2021/12/09 03:56:51;;;;;;;13.63;5.60;;;2.60;99.90;;;;;;5031684;28;20211;-77
2021/12/09 03:59:17;;;;;;;13.17;6.33;;;2.60;99.90;;;;;;5031231;28;20204;-77
2021/12/09 04:01:44;;;;;;;11.87;5.50;;;2.70;99.90;;;;;;5031732;28;20199;-77
2021/12/09 04:04:12;;;;;;;11.37;5.43;;;2.80;99.90;;;;;;5031742;28;20176;-78
2021/12/09 04:06:38;;;;;;;14.13;5.50;;;2.70;99.90;;;;;;5032201;28;20212;-78
2021/12/09 04:09:07;;;;;;;13.90;5.30;;;2.70;99.90;;;;;;5032027;28;20563;-78
2021/12/09 04:11:32;;;;;;;14.23;5.20;;;2.80;99.90;;;;;;5034614;28;20219;-78
2021/12/09 04:13:58;;;;;;;11.63;5.60;;;2.80;99.90;;;;;;5035938;28;20258;-77
2021/12/09 04:16:23;;;;;;;12.20;5.10;;;2.80;99.90;;;;;;5035940;28;20323;-78
2021/12/09 04:18:49;;;;;;;11.37;6.10;;;2.80;99.90;;;;;;5040689;28;20191;-78
2021/12/09 04:21:15;;;;;;;11.33;5.00;;;2.90;99.90;;;;;;5041577;28;20620;-80
2021/12/09 04:23:42;;;;;;;11.13;5.20;;;2.80;99.90;;;;;;5041827;28;20663;-80
2021/12/09 04:26:08;;;;;;;12.30;5.20;;;2.90;99.90;;;;;;5043233;28;20254;-79
2021/12/09 04:28:35;;;;;;;15.87;6.07;;;2.80;99.90;;;;;;5039990;28;20180;-79
2021/12/09 04:31:01;;;;;;;13.57;5.87;;;2.80;99.90;;;;;;5043549;28;20483;-79
2021/12/09 04:33:27;;;;;;;15.53;5.93;;;2.90;99.90;;;;;;5042843;28;20176;-80
2021/12/09 04:35:53;;;;;;;9.00;5.53;;;2.80;99.90;;;;;;5038368;28;20184;-78
2021/12/09 04:38:19;;;;;;;16.93;6.30;;;2.80;99.90;;;;;;5041316;28;20176;-78
2021/12/09 04:40:44;;;;;;;11.93;5.63;;;2.90;99.90;;;;;;5037921;28;20200;-80
2021/12/09 04:43:10;;;;;;;17.50;5.80;;;2.90;99.90;;;;;;5040199;28;20268;-80
2021/12/09 04:45:38;;;;;;;10.47;5.77;;;2.90;99.90;;;;;;5035803;28;20277;-78
2021/12/09 04:48:06;;;;;;;13.50;6.43;;;2.80;99.90;;;;;;5035130;28;20180;-80
2021/12/09 04:50:32;;;;;;;10.97;6.17;;;2.80;99.90;;;;;;5034712;28;20203;-79
2021/12/09 04:52:58;;;;;;;11.30;6.00;;;2.80;99.90;;;;;;5035059;28;20613;-79
2021/12/09 04:55:23;;;;;;;14.60;6.13;;;2.80;99.90;;;;;;5034706;28;20699;-79
2021/12/09 04:57:49;;;;;;;13.73;6.80;;;2.80;99.90;;;;;;5034492;28;20211;-79
2021/12/09 05:00:20;;;;;;;10.47;5.93;;;2.80;99.90;;;;;;5034295;28;20215;-78
2021/12/09 05:05:12;;;;;;;10.97;5.70;;;2.80;99.90;;;;;;5035163;28;20211;-77
2021/12/09 05:07:37;;;;;;;9.27;5.70;;;2.80;99.90;;;;;;5033911;28;20553;-76
2021/12/09 05:10:05;;;;;;;16.07;6.30;;;2.80;99.90;;;;;;5034531;28;20196;-77
2021/12/09 05:12:30;;;;;;;11.07;6.20;;;2.80;99.90;;;;;;5034875;28;20209;-77
2021/12/09 05:14:56;;;;;;;28.30;14.37;;;2.80;99.90;;;;;;5034275;28;20179;-76
2021/12/09 05:17:22;;;;;;;14.53;6.93;;;2.80;99.90;;;;;;5035731;28;20203;-78
2021/12/09 05:19:48;;;;;;;14.80;6.90;;;2.80;99.90;;;;;;5034286;28;20188;-77
2021/12/09 05:22:15;;;;;;;11.60;6.47;;;2.80;99.90;;;;;;5033831;28;20179;-78
2021/12/09 05:24:40;;;;;;;14.20;8.60;;;2.80;99.90;;;;;;5034808;28;20176;-77
2021/12/09 05:27:08;;;;;;;14.20;7.17;;;2.80;99.90;;;;;;5034605;28;20179;-77
2021/12/09 05:29:39;;;;;;;13.77;6.23;;;2.80;99.90;;;;;;5033048;28;20176;-75
2021/12/09 05:32:12;;;;;;;9.87;5.33;;;2.80;99.90;;;;;;5033454;28;20640;-77
2021/12/09 05:34:44;;;;;;;8.83;5.47;;;2.80;99.90;;;;;;5034145;28;20531;-77
2021/12/09 05:37:18;;;;;;;11.90;6.23;;;2.80;99.90;;;;;;5034064;28;20272;-77
2021/12/09 05:39:45;;;;;;;10.20;5.80;;;2.80;99.90;;;;;;5033199;28;20756;-77
2021/12/09 05:42:11;;;;;;;9.97;5.10;;;2.90;99.90;;;;;;5033914;28;20184;-78
2021/12/09 05:44:38;;;;;;;11.27;4.83;;;2.80;99.90;;;;;;5034365;28;20184;-78
2021/12/09 05:47:05;;;;;;;10.67;4.60;;;2.80;99.90;;;;;;5034652;28;20229;-77
2021/12/09 05:49:33;;;;;;;8.70;5.27;;;2.80;99.90;;;;;;5034051;28;20186;-78
2021/12/09 05:51:58;;;;;;;16.77;5.47;;;2.70;99.90;;;;;;5034557;28;20198;-77
2021/12/09 05:54:24;;;;;;;15.47;5.93;;;2.80;99.90;;;;;;5034466;28;20649;-78
2021/12/09 05:56:50;;;;;;;9.70;4.70;;;2.70;99.90;;;;;;5035582;28;20176;-78
2021/12/09 05:59:16;;;;;;;9.33;4.87;;;2.70;99.90;;;;;;5034482;28;20182;-79
2021/12/09 06:01:41;;;;;;;13.23;5.10;;;2.70;99.90;;;;;;5034929;28;20574;-79
2021/12/09 06:04:09;;;;;;;11.97;5.00;;;2.70;99.90;;;;;;5034983;28;20192;-80
2021/12/09 06:06:36;;;;;;;13.40;5.00;;;2.70;99.90;;;;;;5036550;28;20600;-78
2021/12/09 06:09:03;;;;;;;15.73;5.20;;;2.70;99.90;;;;;;5039964;28;20190;-79
2021/12/09 06:11:28;;;;;;;12.60;4.67;;;2.80;99.90;;;;;;5040277;28;20208;-79
2021/12/09 06:13:54;;;;;;;10.97;4.60;;;2.80;99.90;;;;;;5036766;28;20551;-78
2021/12/09 06:16:20;;;;;;;12.23;4.27;;;2.70;99.90;;;;;;5035730;28;20182;-76
2021/12/09 06:18:46;;;;;;;14.03;4.53;;;2.70;99.90;;;;;;5067821;22;20240;-77
2021/12/09 06:21:12;;;;;;;11.80;4.57;;;2.70;99.90;;;;;;5013026;28;20209;-76
2021/12/09 06:23:37;;;;;;;13.27;4.50;;;2.70;99.90;;;;;;5013196;28;20193;-77
2021/12/09 06:26:06;;;;;;;10.43;4.70;;;2.60;99.90;;;;;;5013105;28;20270;-77
2021/12/09 06:28:32;;;;;;;11.23;4.47;;;2.50;99.90;;;;;;5013763;28;20207;-77
2021/12/09 06:30:58;;;;;;;10.90;4.23;;;2.50;99.90;;;;;;5012580;28;20256;-77
2021/12/09 06:33:24;;;;;;;12.67;4.77;;;2.60;99.90;;;;;;5013647;28;20585;-75
2021/12/09 06:35:49;;;;;;;10.83;4.30;;;2.50;99.90;;;;;;5014161;28;20173;-74
2021/12/09 06:38:16;;;;;;;13.50;4.70;;;2.50;99.90;;;;;;5014576;28;20204;-75
2021/12/09 06:40:42;;;;;;;11.47;5.23;;;2.50;99.90;;;;;;5012147;28;20227;-76
2021/12/09 06:43:08;;;;;;;8.73;4.57;;;2.40;99.90;;;;;;5012816;28;20168;-76
2021/12/09 06:45:34;;;;;;;9.27;4.40;;;2.40;99.90;;;;;;5012920;28;20380;-76
2021/12/09 06:48:00;;;;;;;13.03;4.47;;;2.30;99.90;;;;;;5012490;28;20255;-76
2021/12/09 06:50:26;;;;;;;11.43;4.47;;;2.30;99.90;;;;;;5011932;28;20648;-76
2021/12/09 06:52:52;;;;;;;9.77;4.83;;;2.30;99.90;;;;;;5012206;28;20176;-77
2021/12/09 06:55:20;;;;;;;10.03;4.90;;;2.20;99.90;;;;;;5012450;28;20193;-76
2021/12/09 06:57:46;;;;;;;11.10;5.03;;;2.20;99.90;;;;;;5012127;28;20187;-74
2021/12/09 07:00:16;;;;;;;12.53;4.63;;;2.20;99.90;;;;;;5011869;28;20569;-75
2021/12/09 07:02:43;;;;;;;16.20;4.70;;;2.20;99.90;;;;;;5012084;28;20187;-75
2021/12/09 07:05:10;;;;;;;8.80;5.10;;;2.10;99.90;;;;;;5011940;28;20208;-76
2021/12/09 07:07:35;;;;;;;14.63;6.93;;;2.10;99.90;;;;;;5011709;28;20224;-73
2021/12/09 07:10:01;;;;;;;15.03;6.27;;;2.10;99.90;;;;;;5011898;28;20224;-74
2021/12/09 07:12:27;;;;;;;12.67;5.47;;;2.10;99.90;;;;;;5011843;28;20522;-75
2021/12/09 07:14:52;;;;;;;12.00;5.80;;;2.20;99.90;;;;;;5011899;28;20172;-75
2021/12/09 07:17:20;;;;;;;9.87;5.67;;;2.20;99.90;;;;;;5012095;28;20263;-76
2021/12/09 07:19:45;;;;;;;8.73;5.40;;;2.20;99.90;;;;;;5011343;28;20321;-77
2021/12/09 07:22:11;;;;;;;8.73;5.03;;;2.20;99.90;;;;;;5011729;28;20633;-74
2021/12/09 07:24:37;;;;;;;10.57;4.80;;;2.20;99.90;;;;;;5011900;28;20548;-76
2021/12/09 07:27:03;;;;;;;9.37;4.70;;;2.30;99.90;;;;;;5018914;28;20206;-73
2021/12/09 07:29:28;;;;;;;15.13;5.67;;;2.30;99.90;;;;;;5024512;28;20659;-71
2021/12/09 07:31:54;;;;;;;8.43;5.60;;;2.30;99.90;;;;;;5031200;28;20250;-71
2021/12/09 07:34:21;;;;;;;10.60;5.80;;;2.40;99.90;;;;;;5031250;28;20172;-72
2021/12/09 07:36:47;;;;;;;11.40;8.13;;;2.50;99.90;;;;;;5031034;28;20180;-72
2021/12/09 07:39:13;;;;;;;21.83;10.77;;;2.50;99.90;;;;;;5030927;28;20176;-73
2021/12/09 07:41:38;;;;;;;14.73;6.80;;;2.50;99.90;;;;;;5020894;28;20550;-72
2021/12/09 07:44:05;;;;;;;8.43;4.80;;;2.60;99.90;;;;;;5013121;28;20183;-73
2021/12/09 07:46:32;;;;;;;8.77;4.73;;;2.70;99.90;;;;;;5014115;28;20238;-76
2021/12/09 07:48:57;;;;;;;12.53;4.73;;;2.60;99.90;;;;;;5015101;28;20188;-76
2021/12/09 07:51:23;;;;;;;8.10;4.63;;;2.70;99.90;;;;;;5016422;28;20188;-76
2021/12/09 07:53:48;;;;;;;5.70;4.50;;;2.60;99.90;;;;;;5015398;28;20179;-76
2021/12/09 07:56:14;;;;;;;10.10;4.97;;;2.60;99.90;;;;;;5015214;28;20581;-73
2021/12/09 07:58:40;;;;;;;8.77;4.87;;;2.80;99.90;;;;;;5014643;28;20187;-74
2021/12/09 08:01:05;;;;;;;8.47;4.60;;;2.80;99.90;;;;;;5013992;28;20207;-75
2021/12/09 08:03:31;;;;;;;10.87;4.53;;;2.80;99.90;;;;;;5014410;28;20181;-74
2021/12/09 08:05:57;;;;;;;9.03;4.43;;;2.70;99.90;;;;;;5014454;28;20242;-74
2021/12/09 08:08:22;;;;;;;8.10;4.43;;;2.80;99.90;;;;;;5015216;28;20616;-74
2021/12/09 08:10:48;;;;;;;8.70;4.60;;;2.70;99.90;;;;;;5014393;28;20262;-74
2021/12/09 08:13:14;;;;;;;9.60;4.50;;;2.70;99.90;;;;;;5014899;28;20195;-74
2021/12/09 08:15:45;;;;;;;28.43;12.07;;;2.80;99.90;;;;;;5014538;28;20177;-74
2021/12/09 08:18:27;;;;;;;10.50;5.73;;;2.80;99.90;;;;;;5014169;28;20966;-75
2021/12/09 08:20:58;;;;;;;12.37;5.67;;;2.80;99.90;;;;;;5012738;28;20205;-74
2021/12/09 08:23:24;;;;;;;8.43;4.57;;;2.80;99.90;;;;;;5011886;28;20649;-74
2021/12/09 08:25:50;;;;;;;9.53;4.67;;;2.90;99.90;;;;;;5014276;28;20224;-76
2021/12/09 08:28:16;;;;;;;10.57;4.57;;;2.90;99.90;;;;;;5016402;28;20601;-77
2021/12/09 08:30:42;;;;;;;12.40;4.60;;;2.90;99.90;;;;;;5014153;28;20271;-74
2021/12/09 08:33:08;;;;;;;7.07;4.40;;;3.00;99.90;;;;;;5013926;28;20169;-74
2021/12/09 08:35:36;;;;;;;6.97;4.17;;;3.00;99.90;;;;;;5013702;28;20193;-77
2021/12/09 08:38:04;;;;;;;8.13;4.13;;;3.10;99.90;;;;;;5014934;28;20168;-76
2021/12/09 08:40:31;;;;;;;7.50;4.20;;;3.00;99.90;;;;;;5014674;28;20204;-76
2021/12/09 08:42:57;;;;;;;9.73;4.20;;;3.10;99.90;;;;;;5015042;28;20175;-76
2021/12/09 08:45:23;;;;;;;6.97;4.20;;;3.10;99.90;;;;;;5014100;28;20204;-76
2021/12/09 08:47:49;;;;;;;10.93;4.20;;;3.20;99.90;;;;;;5014239;28;20700;-77
2021/12/09 08:50:19;;;;;;;11.83;4.70;;;3.20;99.90;;;;;;5014001;28;20196;-77
2021/12/09 08:52:47;;;;;;;6.93;4.20;;;3.30;99.90;;;;;;5014066;28;20179;-76
2021/12/09 08:55:13;;;;;;;6.90;4.47;;;3.30;99.90;;;;;;5014363;28;20189;-77
2021/12/09 08:57:39;;;;;;;9.80;3.80;;;3.40;99.90;;;;;;5012800;28;20173;-77
2021/12/09 09:00:08;;;;;;;7.10;4.20;;;3.40;99.90;;;;;;5013849;28;20200;-74
2021/12/09 09:02:35;;;;;;;6.37;4.23;;;3.40;99.90;;;;;;5013995;28;20203;-76
2021/12/09 09:05:01;;;;;;;7.67;4.70;;;3.40;99.90;;;;;;5013817;28;20207;-76
2021/12/09 09:07:26;;;;;;;10.33;4.30;;;3.30;99.90;;;;;;5013716;28;20541;-74
2021/12/09 09:09:52;;;;;;;10.37;4.97;;;3.40;99.90;;;;;;5011956;28;20221;-75
2021/12/09 09:12:18;;;;;;;7.40;4.43;;;3.40;99.90;;;;;;5012809;28;20188;-75
2021/12/09 09:14:43;;;;;;;8.67;4.47;;;3.40;99.90;;;;;;5013380;28;20251;-75
2021/12/09 09:17:09;;;;;;;6.70;4.50;;;3.50;99.90;;;;;;5013599;28;20174;-75
2021/12/09 09:19:35;;;;;;;9.10;4.60;;;3.50;99.90;;;;;;5012771;28;20296;-77
2021/12/09 09:22:01;;;;;;;11.97;7.43;;;3.50;99.90;;;;;;5013386;28;20234;-75
2021/12/09 09:24:28;;;;;;;10.67;5.27;;;3.50;99.90;;;;;;5013270;28;20479;-77
2021/12/09 09:26:53;;;;;;;8.10;5.40;;;3.60;99.90;;;;;;5013292;28;20227;-76
2021/12/09 09:29:19;;;;;;;9.70;5.03;;;3.70;99.90;;;;;;5012535;28;20176;-77
2021/12/09 09:31:45;;;;;;;9.47;4.33;;;3.70;99.90;;;;;;5013097;28;20196;-74
2021/12/09 09:34:11;;;;;;;6.13;4.80;;;3.70;99.90;;;;;;5013122;28;20184;-77
2021/12/09 09:36:43;;;;;;;8.10;4.50;;;3.80;99.90;;;;;;5013394;28;20783;-74
2021/12/09 09:39:21;;;;;;;6.67;4.40;;;3.80;99.90;;;;;;5013145;28;20176;-75
2021/12/09 09:42:00;;;;;;;7.57;4.80;;;4.00;99.90;;;;;;5012949;28;20207;-74
2021/12/09 09:44:33;;;;;;;9.50;4.70;;;3.90;99.90;;;;;;5013850;28;20176;-74
2021/12/09 09:47:00;;;;;;;8.83;4.57;;;4.00;99.90;;;;;;5013220;28;20223;-75
2021/12/09 09:49:26;;;;;;;8.57;4.57;;;3.90;75.10;;;;;;5012189;28;20641;-75
2021/12/09 09:51:52;;;;;;;7.20;4.80;;;3.90;97.60;;;;;;5012922;28;20181;-74
2021/12/09 09:54:17;;;;;;;7.73;5.17;;;4.00;99.90;;;;;;5012567;28;20259;-75
2021/12/09 09:56:44;;;;;;;9.70;4.67;;;4.00;99.90;;;;;;5013390;28;20231;-75
2021/12/09 09:59:17;;;;;;;6.00;4.43;;;4.10;99.90;;;;;;5012660;28;20208;-77
2021/12/09 10:01:44;;;;;;;7.83;4.67;;;4.20;99.90;;;;;;5012790;28;20192;-75
2021/12/09 10:04:15;;;;;;;7.87;4.63;;;4.10;99.90;;;;;;5011275;28;20177;-75
2021/12/09 10:06:43;;;;;;;8.10;4.43;;;4.10;99.90;;;;;;5012616;28;20255;-75
2021/12/09 10:09:11;;;;;;;7.53;5.60;;;4.10;96.00;;;;;;5012295;28;20172;-76
2021/12/09 10:11:37;;;;;;;7.70;5.03;;;4.10;48.50;;;;;;5012333;28;20287;-74
2021/12/09 10:14:08;;;;;;;7.20;4.90;;;4.00;49.30;;;;;;5012606;28;20242;-75
2021/12/09 10:16:34;;;;;;;5.40;4.37;;;4.10;49.00;;;;;;5012506;28;20191;-75
2021/12/09 10:19:00;;;;;;;7.10;4.70;;;4.10;43.80;;;;;;5012387;28;20184;-75
2021/12/09 10:21:30;;;;;;;8.50;4.80;;;4.10;1.00;;;;;;5011729;28;20201;-75
2021/12/09 10:24:04;;;;;;;5.47;4.13;;;4.00;33.50;;;;;;5012695;28;20204;-74
2021/12/09 10:26:36;;;;;;;7.60;4.40;;;4.10;1.00;;;;;;5012214;28;20600;-75
2021/12/09 10:29:24;;;;;;;6.73;4.30;;;4.10;1.00;;;;;;5012864;28;20208;-75
2021/12/09 10:31:57;;;;;;;9.07;7.60;;;4.20;11.00;;;;;;5012107;28;20183;-74
2021/12/09 10:34:41;;;;;;;8.43;4.30;;;4.20;1.00;;;;;;5009173;28;20187;-75
2021/12/09 10:37:16;;;;;;;8.17;4.40;;;4.20;1.00;;;;;;5009485;28;20259;-76
2021/12/09 10:39:57;;;;;;;8.10;4.60;;;4.30;1.00;;;;;;5010348;28;20208;-76
2021/12/09 10:42:29;;;;;;;8.10;3.70;;;4.50;42.10;;;;;;5009312;28;20184;-76
2021/12/09 10:44:56;;;;;;;8.20;4.03;;;4.50;1.00;;;;;;5012288;28;20200;-76
2021/12/09 10:50:39;;;;;;;5.33;4.07;;;4.50;1.00;;;;;;5011757;28;20288;-76
2021/12/09 10:56:00;;;;;;;5.73;4.07;;;4.50;1.00;;;;;;5012070;28;20177;-76
2021/12/09 10:58:32;;;;;;;6.40;3.97;;;4.50;1.00;;;;;;5011676;28;20183;-77
2021/12/09 11:01:14;;;;;;;8.73;4.20;;;4.50;1.00;;;;;;5010834;28;20203;-75
2021/12/09 11:03:41;;;;;;;8.43;4.47;;;4.50;1.00;;;;;;5011553;28;20180;-76
2021/12/09 11:06:09;;;;;;;9.23;4.80;;;4.50;1.00;;;;;;5011608;28;20212;-76
2021/12/09 11:08:42;;;;;;;8.07;4.20;;;4.50;1.00;;;;;;5011694;28;20176;-76
2021/12/09 11:11:17;;;;;;;6.90;4.30;;;4.50;1.00;;;;;;5011263;28;20196;-75
2021/12/09 11:13:47;;;;;;;8.17;4.07;;;4.50;1.00;;;;;;5011670;28;20168;-75
2021/12/09 11:16:23;;;;;;;6.13;4.17;;;4.50;1.00;;;;;;5011812;28;20199;-76
2021/12/09 11:18:51;;;;;;;6.77;4.33;;;4.50;1.00;;;;;;5011437;28;20200;-76
2021/12/09 11:21:18;;;;;;;6.03;3.70;;;4.60;1.00;;;;;;5010536;28;20211;-75
2021/12/09 11:23:55;;;;;;;5.93;3.90;;;4.60;1.00;;;;;;5011495;28;20172;-75
2021/12/09 11:26:36;;;;;;;6.10;3.50;;;4.70;1.00;;;;;;5011753;28;20230;-76
2021/12/09 11:29:08;;;;;;;8.37;3.97;;;4.60;1.00;;;;;;5011633;28;20175;-76
2021/12/09 11:31:39;;;;;;;7.93;4.07;;;4.70;1.00;;;;;;5011161;28;20275;-76
2021/12/09 11:34:12;;;;;;;8.23;3.60;;;4.70;1.00;;;;;;5012352;28;20183;-76
2021/12/09 11:36:39;;;;;;;6.03;3.90;;;4.80;1.00;;;;;;5013165;28;20180;-76
2021/12/09 11:39:19;;;;;;;10.57;3.90;;;4.90;1.00;;;;;;5011469;28;20168;-76
2021/12/09 11:41:45;;;;;;;6.47;3.80;;;4.90;1.00;;;;;;5011369;28;20196;-78
2021/12/09 11:44:12;;;;;;;4.60;3.27;;;4.90;1.00;;;;;;5011446;28;20263;-76
2021/12/09 11:46:42;;;;;;;5.70;3.00;;;4.90;1.00;;;;;;5011167;28;20681;-76
2021/12/09 11:49:10;;;;;;;5.50;3.40;;;4.90;1.00;;;;;;5011337;28;20181;-75
2021/12/09 11:51:37;;;;;;;5.97;3.40;;;4.90;1.00;;;;;;5010916;28;20604;-75
2021/12/09 11:54:06;;;;;;;6.30;3.50;;;4.90;1.00;;;;;;5011326;28;20235;-74
2021/12/09 12:11:30;;;;;;;5.53;3.30;;;5.20;1.00;;;;;;5012701;28;20549;-75
2021/12/09 12:14:07;;;;;;;4.57;2.90;;;5.30;1.00;;;;;;5003724;28;20208;-74
2021/12/09 12:16:53;;;;;;;8.57;2.90;;;5.50;99.90;;;;;;5013765;28;20210;-76
2021/12/09 12:19:55;;;;;;;5.80;3.20;;;5.40;99.90;;;;;;5028389;23;20717;-80
2021/12/09 12:34:01;;;;;;;11.00;5.03;;;5.40;1.00;;;;;;4994036;28;20630;-78
2021/12/09 12:39:34;;;;;;;5.57;4.40;;;5.30;99.90;;;;;;4994911;28;20174;-77
2021/12/09 12:42:09;;;;;;;10.63;9.53;;;5.50;1.00;;;;;;4996160;28;20703;-80
2021/12/09 12:44:36;;;;;;;6.60;4.23;;;5.40;1.00;;;;;;4995561;28;20531;-79
2021/12/09 12:47:14;;;;;;;5.83;3.17;;;5.60;95.40;;;;;;4996591;28;20217;-78
2021/12/09 12:49:46;;;;;;;9.90;6.97;;;5.30;99.90;;;;;;4996990;28;20205;-79
2021/12/09 12:52:27;;;;;;;22.43;14.67;;;5.40;99.90;;;;;;4997314;28;20312;-79
2021/12/09 12:55:11;;;;;;;12.00;7.87;;;6.10;1.00;;;;;;4996273;28;20169;-78
2021/12/09 12:57:41;;;;;;;5.50;2.90;;;5.80;1.00;;;;;;4995435;28;20184;-78
2021/12/09 13:00:29;;;;;;;6.33;3.10;;;5.60;1.00;;;;;;4994867;28;20230;-76
2021/12/09 13:09:16;;;;;;;6.63;2.50;;;6.20;1.00;;;;;;4996926;28;20587;-79
2021/12/09 13:11:51;;;;;;;4.93;2.37;;;6.50;61.50;;;;;;4994426;28;20666;-79
2021/12/09 13:14:30;;;;;;;4.20;2.20;;;6.50;1.00;;;;;;4995187;28;20248;-79
2021/12/09 13:17:12;;;;;;;5.80;2.50;;;6.80;1.00;;;;;;4995258;28;20181;-79
2021/12/09 13:19:52;;;;;;;4.47;2.10;;;7.00;1.00;;;;;;4994607;28;20228;-79
2021/12/09 13:22:30;;;;;;;4.57;2.20;;;7.10;1.00;;;;;;4997253;28;20183;-78
2021/12/09 13:25:14;;;;;;;5.50;2.30;;;7.50;99.90;;;;;;5001748;28;20192;-77
2021/12/09 13:27:45;;;;;;;3.60;2.20;;;8.10;1.00;;;;;;5013996;28;20306;-77
2021/12/09 13:38:36;;;;;;;36.23;20.43;;;6.80;1.00;;;;;;5002257;28;20188;-75
2021/12/09 13:54:26;;;;;;;6.37;3.30;;;5.50;99.90;;;;;;4994048;28;20638;-78
2021/12/09 13:57:02;;;;;;;8.13;2.40;;;5.30;1.00;;;;;;4996172;28;20184;-78
2021/12/09 13:59:30;;;;;;;8.80;3.30;;;5.30;1.00;;;;;;4995449;28;20177;-78
2021/12/09 14:01:58;;;;;;;7.90;2.53;;;6.90;1.00;;;;;;4994356;28;20209;-78
2021/12/09 14:04:32;;;;;;;5.87;2.20;;;8.30;1.00;;;;;;4993643;28;20617;-79
2021/12/09 14:07:12;;;;;;;8.23;2.70;;;8.30;99.90;;;;;;4994124;28;20635;-77